< < Back
Terminal Aerodrome Forecast


Current Version              Previous Versions:   1  2  3  4  5  6  7  8  9  

Terminal Aerodrome Forecast

972
FTUS42 KTAE 202200 AAA
TAFABY
TAF AMD
KABY 202219Z 2022/2118 05007KT P6SM SCT035
     FM210400 06005KT P6SM FEW050
     FM211500 05007KT P6SM SKC=



Latest METAR

408
SAUS70 KWBC 210700 RRH
MTRABY
METAR KABY 210653Z 00000KT 7SM CLR 10/09 A3015 RMK AO2 SLP208 T01000094
PNO $


USA.gov is the U.S. government's official web portal to all federal, state and local government web resources and services.